createdAt,value
2018-07-03T00:01:29.623Z,94719.73
2018-07-03T00:03:58.342Z,94715.52
2018-07-03T00:06:27.098Z,94718.09
2018-07-03T00:08:55.767Z,94723.02
2018-07-03T00:11:24.503Z,94727.16
2018-07-03T00:13:53.559Z,94736.30
2018-07-03T00:16:27.326Z,94726.22
2018-07-03T00:18:55.994Z,94719.81
2018-07-03T00:21:24.724Z,94719.16
2018-07-03T00:23:53.408Z,94716.63
2018-07-03T00:26:22.119Z,94723.60
2018-07-03T00:28:50.833Z,94732.53
2018-07-03T00:31:19.504Z,94733.73
2018-07-03T00:33:48.198Z,94731.34
2018-07-03T00:36:16.886Z,94721.55
2018-07-03T00:38:45.571Z,94731.08
2018-07-03T00:41:14.342Z,94720.48
2018-07-03T00:43:43.003Z,94732.01
2018-07-03T00:46:11.675Z,94737.67
2018-07-03T00:48:40.362Z,94732.39
2018-07-03T00:51:09.008Z,94733.77
2018-07-03T00:53:37.774Z,94738.75
2018-07-03T00:56:06.696Z,94738.98
2018-07-03T00:58:35.360Z,94740.16
2018-07-03T01:01:04.076Z,94734.64
2018-07-03T01:03:32.757Z,94732.52
2018-07-03T01:06:01.387Z,94733.92
2018-07-03T01:08:30.071Z,94737.38
2018-07-03T01:10:59.216Z,94741.03
2018-07-03T01:13:27.923Z,94736.72
2018-07-03T01:15:56.683Z,94736.36
2018-07-03T01:18:25.314Z,94740.52
2018-07-03T01:20:53.998Z,94742.19
2018-07-03T01:23:22.698Z,94745.45
2018-07-03T01:25:51.421Z,94749.41
2018-07-03T01:28:20.083Z,94742.95
2018-07-03T01:30:48.716Z,94748.82
2018-07-03T01:33:17.442Z,94741.51
2018-07-03T01:35:46.096Z,94738.88
2018-07-03T01:38:14.784Z,94741.74
2018-07-03T01:40:43.458Z,94740.59
2018-07-03T01:43:12.129Z,94742.07
2018-07-03T01:45:40.850Z,94742.83
2018-07-03T01:48:09.610Z,94742.63
2018-07-03T01:50:38.235Z,94746.15
2018-07-03T01:53:06.990Z,94738.53
2018-07-03T01:55:35.650Z,94732.90
2018-07-03T01:58:04.372Z,94729.34
2018-07-03T02:00:33.115Z,94732.77
2018-07-03T02:03:04.546Z,94734.87
2018-07-03T02:05:33.229Z,94734.36
2018-07-03T02:08:01.915Z,94731.06
2018-07-03T02:10:30.623Z,94736.67
2018-07-03T02:12:59.275Z,94745.51
2018-07-03T02:15:27.947Z,94743.18
2018-07-03T02:17:56.578Z,94750.88
2018-07-03T02:20:25.256Z,94748.70
2018-07-03T02:22:53.919Z,94749.94
2018-07-03T02:25:22.594Z,94737.29
2018-07-03T02:27:51.276Z,94738.45
2018-07-03T02:30:19.986Z,94746.20
2018-07-03T02:32:48.637Z,94757.76
2018-07-03T02:35:17.328Z,94759.00
2018-07-03T02:37:46.010Z,94761.56
2018-07-03T02:40:14.783Z,94753.96
2018-07-03T02:42:43.475Z,94760.05
2018-07-03T02:45:12.243Z,94770.73
2018-07-03T02:47:40.902Z,94777.38
2018-07-03T02:50:09.623Z,94771.81
2018-07-03T02:52:38.312Z,94775.39
2018-07-03T02:55:07.032Z,94771.37
2018-07-03T02:57:35.776Z,94777.16
2018-07-03T03:00:06.002Z,94784.46
2018-07-03T03:02:34.922Z,94781.75
2018-07-03T03:05:03.711Z,94782.77
2018-07-03T03:07:32.407Z,94786.34
2018-07-03T03:10:01.058Z,94781.38
2018-07-03T03:12:29.732Z,94779.31
2018-07-03T03:14:58.406Z,94784.64
2018-07-03T03:17:27.114Z,94781.30
2018-07-03T03:19:55.841Z,94786.91
2018-07-03T03:22:24.552Z,94782.23
2018-07-03T03:24:53.369Z,94786.30
2018-07-03T03:27:22.082Z,94792.48
2018-07-03T03:29:50.780Z,94787.26
2018-07-03T03:32:19.499Z,94788.81
2018-07-03T03:34:48.174Z,94794.87
2018-07-03T03:37:16.853Z,94793.03
2018-07-03T03:39:45.594Z,94783.77
2018-07-03T03:42:14.322Z,94781.34
2018-07-03T03:44:43.085Z,94780.67
2018-07-03T03:47:11.810Z,94781.72
2018-07-03T03:49:40.513Z,94782.30
2018-07-03T03:52:09.215Z,94782.31
2018-07-03T03:54:37.945Z,94777.44
2018-07-03T03:57:06.960Z,94775.20
2018-07-03T03:59:35.703Z,94778.97
2018-07-03T04:02:04.451Z,94783.86
2018-07-03T04:04:33.174Z,94791.72
2018-07-03T04:07:01.895Z,94791.34
2018-07-03T04:09:30.578Z,94789.09
2018-07-03T04:11:59.290Z,94782.38
2018-07-03T04:14:27.964Z,94790.50
2018-07-03T04:16:56.664Z,94794.16
2018-07-03T04:19:25.354Z,94792.68
2018-07-03T04:21:54.072Z,94798.17
2018-07-03T04:24:22.734Z,94803.13
2018-07-03T04:26:51.468Z,94798.88
2018-07-03T04:29:20.161Z,94806.46
2018-07-03T04:31:48.948Z,94807.05
2018-07-03T04:34:17.635Z,94805.70
2018-07-03T04:36:46.311Z,94811.27
2018-07-03T04:39:15.054Z,94813.15
2018-07-03T04:41:43.771Z,94818.13
2018-07-03T04:44:12.602Z,94819.27
2018-07-03T04:46:41.302Z,94818.17
2018-07-03T04:49:10.011Z,94821.44
2018-07-03T04:51:38.790Z,94820.01
2018-07-03T04:54:07.530Z,94825.89
2018-07-03T04:56:36.206Z,94819.98
2018-07-03T04:59:04.911Z,94826.30
2018-07-03T05:01:33.603Z,94831.55
2018-07-03T05:04:02.328Z,94830.56
2018-07-03T05:06:31.000Z,94834.98
2018-07-03T05:08:59.725Z,94832.76
2018-07-03T05:11:28.478Z,94829.09
2018-07-03T05:13:57.177Z,94830.88
2018-07-03T05:16:25.871Z,94828.58
2018-07-03T05:18:54.559Z,94831.81
2018-07-03T05:21:23.242Z,94836.70
2018-07-03T05:23:51.930Z,94834.59
2018-07-03T05:26:20.606Z,94832.02
2018-07-03T05:28:49.348Z,94833.05
2018-07-03T05:31:18.147Z,94831.53
2018-07-03T05:33:46.897Z,94823.30
2018-07-03T05:36:15.647Z,94823.19
2018-07-03T05:38:44.313Z,94819.38
2018-07-03T05:41:13.087Z,94823.45
2018-07-03T05:43:41.810Z,94818.87
2018-07-03T05:46:10.608Z,94822.34
2018-07-03T05:48:39.348Z,94823.16
2018-07-03T05:51:08.064Z,94824.59
2018-07-03T05:53:36.777Z,94820.97
2018-07-03T05:56:05.566Z,94817.76
2018-07-03T05:58:34.242Z,94818.29
2018-07-03T06:01:03.014Z,94809.50
2018-07-03T06:03:31.688Z,94808.78
2018-07-03T06:06:00.372Z,94814.59
2018-07-03T06:08:29.107Z,94813.70
2018-07-03T06:10:57.911Z,94813.25
2018-07-03T06:13:26.592Z,94807.14
2018-07-03T06:15:55.291Z,94801.59
2018-07-03T06:18:24.118Z,94810.03
2018-07-03T06:20:52.857Z,94808.75
2018-07-03T06:23:21.507Z,94803.87
2018-07-03T06:25:50.167Z,94798.53
2018-07-03T06:28:18.947Z,94800.50
2018-07-03T06:30:47.681Z,94801.77
2018-07-03T06:33:16.451Z,94796.71
2018-07-03T06:35:45.129Z,94795.50
2018-07-03T06:38:13.880Z,94795.25
2018-07-03T06:40:42.591Z,94796.47
2018-07-03T06:43:11.234Z,94801.69
2018-07-03T06:45:40.007Z,94796.48
2018-07-03T06:48:08.729Z,94794.99
2018-07-03T06:50:37.482Z,94800.05
2018-07-03T06:53:06.170Z,94798.78
2018-07-03T06:55:34.879Z,94798.34
2018-07-03T06:58:03.574Z,94791.12
2018-07-03T07:00:32.704Z,94797.84
2018-07-03T07:03:01.478Z,94799.36
2018-07-03T07:05:30.315Z,94797.28
2018-07-03T07:08:15.250Z,94795.01
2018-07-03T07:10:50.517Z,94798.07
2018-07-03T07:13:19.212Z,94797.25
2018-07-03T07:15:47.929Z,94798.95
2018-07-03T07:18:16.602Z,94794.47
2018-07-03T07:20:45.313Z,94795.47
2018-07-03T07:23:13.998Z,94795.08
2018-07-03T07:25:42.658Z,94790.39
2018-07-03T07:28:11.366Z,94795.80
2018-07-03T07:30:40.059Z,94797.44
2018-07-03T07:33:08.735Z,94801.39
2018-07-03T07:35:37.407Z,94793.71
2018-07-03T07:38:06.400Z,94791.69
2018-07-03T07:40:35.091Z,94788.95
2018-07-03T07:43:03.835Z,94791.70
2018-07-03T07:45:32.512Z,94788.91
2018-07-03T07:48:01.214Z,94784.18
2018-07-03T07:50:29.936Z,94781.35
2018-07-03T07:52:58.626Z,94781.95
2018-07-03T07:55:27.903Z,94783.02
2018-07-03T07:57:56.602Z,94786.23
2018-07-03T08:00:25.283Z,94782.06
2018-07-03T08:02:54.179Z,94778.64
2018-07-03T08:05:22.820Z,94778.72
2018-07-03T08:07:51.493Z,94777.12
2018-07-03T08:10:21.097Z,94781.13
2018-07-03T08:12:50.110Z,94774.02
2018-07-03T08:15:18.861Z,94775.91
2018-07-03T08:17:47.568Z,94775.14
2018-07-03T08:20:16.329Z,94771.75
2018-07-03T08:22:44.993Z,94774.92
2018-07-03T08:25:13.699Z,94770.96
2018-07-03T08:27:42.359Z,94765.91
2018-07-03T08:30:11.135Z,94766.22
2018-07-03T08:32:39.929Z,94776.92
2018-07-03T08:35:08.615Z,94770.31
2018-07-03T08:37:37.313Z,94762.09
2018-07-03T08:40:07.341Z,94759.16
2018-07-03T08:42:36.141Z,94770.38
2018-07-03T08:45:05.466Z,94761.34
2018-07-03T08:47:34.102Z,94762.95
2018-07-03T08:50:02.760Z,94763.73
2018-07-03T08:52:31.471Z,94757.34
2018-07-03T08:55:00.284Z,94756.25
2018-07-03T08:57:29.018Z,94754.91
2018-07-03T08:59:57.667Z,94753.82
2018-07-03T09:02:26.376Z,94752.19
2018-07-03T09:04:55.070Z,94753.23
2018-07-03T09:07:24.074Z,94747.63
2018-07-03T09:09:52.830Z,94749.45
2018-07-03T09:12:21.514Z,94745.47
2018-07-03T09:14:50.207Z,94749.44
2018-07-03T09:17:24.030Z,94748.82
2018-07-03T09:19:53.194Z,94743.17
2018-07-03T09:22:21.995Z,94745.41
2018-07-03T09:24:50.664Z,94742.91
2018-07-03T09:27:19.406Z,94735.66
2018-07-03T09:29:48.183Z,94732.23
2018-07-03T09:32:16.925Z,94732.45
2018-07-03T09:34:45.868Z,94733.66
2018-07-03T09:37:14.555Z,94728.78
2018-07-03T09:39:43.221Z,94731.06
2018-07-03T09:42:12.280Z,94726.84
2018-07-03T09:44:40.969Z,94730.23
2018-07-03T09:47:09.652Z,94720.81
2018-07-03T09:49:38.368Z,94720.21
2018-07-03T09:52:07.075Z,94720.21
2018-07-03T09:54:35.815Z,94717.06
2018-07-03T09:57:04.489Z,94709.31
2018-07-03T09:59:33.162Z,94712.78
2018-07-03T10:02:01.980Z,94714.86
2018-07-03T10:04:30.725Z,94712.71
2018-07-03T10:06:59.401Z,94706.91
2018-07-03T10:09:28.129Z,94705.50
2018-07-03T10:11:57.390Z,94700.27
2018-07-03T10:14:26.164Z,94700.42
2018-07-03T10:16:56.015Z,94702.92
2018-07-03T10:19:24.755Z,94699.84
2018-07-03T10:21:53.527Z,94707.08
2018-07-03T10:24:22.244Z,94712.31
2018-07-03T10:26:50.920Z,94710.75
2018-07-03T10:29:19.619Z,94701.05
2018-07-03T10:31:48.361Z,94703.96
2018-07-03T10:34:17.055Z,94703.42
2018-07-03T10:36:45.842Z,94701.39
2018-07-03T10:39:15.067Z,94701.25
2018-07-03T10:41:43.743Z,94698.97
2018-07-03T10:44:12.475Z,94686.23
2018-07-03T10:46:41.171Z,94690.91
2018-07-03T10:49:09.976Z,94692.08
2018-07-03T10:51:38.647Z,94691.89
2018-07-03T10:54:07.374Z,94697.58
2018-07-03T10:56:36.086Z,94689.14
2018-07-03T10:59:04.806Z,94684.95
2018-07-03T11:01:33.448Z,94680.89
2018-07-03T11:04:02.138Z,94679.35
2018-07-03T11:06:30.826Z,94675.53
2018-07-03T11:08:59.506Z,94675.28
2018-07-03T11:11:28.198Z,94673.02
2018-07-03T11:13:57.597Z,94667.95
2018-07-03T11:16:26.243Z,94671.27
2018-07-03T11:18:54.938Z,94668.95
2018-07-03T11:21:23.619Z,94672.47
2018-07-03T11:23:52.398Z,94671.86
2018-07-03T11:26:21.117Z,94669.94
2018-07-03T11:28:49.842Z,94670.94
2018-07-03T11:31:18.596Z,94670.94
2018-07-03T11:33:47.411Z,94673.27
2018-07-03T11:36:16.065Z,94665.78
2018-07-03T11:38:45.029Z,94662.77
2018-07-03T11:41:13.743Z,94662.55
2018-07-03T11:43:42.481Z,94661.73
2018-07-03T11:46:11.308Z,94657.43
2018-07-03T11:48:40.053Z,94662.08
2018-07-03T11:51:08.786Z,94663.81
2018-07-03T11:53:37.605Z,94651.67
2018-07-03T11:56:06.301Z,94658.26
2018-07-03T11:58:34.963Z,94649.57
2018-07-03T12:01:03.822Z,94642.50
2018-07-03T12:03:32.626Z,94646.61
2018-07-03T12:06:01.399Z,94648.31
2018-07-03T12:08:30.134Z,94641.53
2018-07-03T12:10:58.837Z,94639.67
2018-07-03T12:13:28.335Z,94631.77
2018-07-03T12:15:57.055Z,94624.66
2018-07-03T12:18:31.068Z,94628.87
2018-07-03T12:20:59.768Z,94626.66
2018-07-03T12:23:28.449Z,94616.69
2018-07-03T12:25:57.152Z,94613.56
2018-07-03T12:28:25.972Z,94612.02
2018-07-03T12:30:54.697Z,94614.26
2018-07-03T12:33:23.456Z,94606.70
2018-07-03T12:35:52.116Z,94600.22
2018-07-03T12:38:20.823Z,94608.43
2018-07-03T12:40:49.593Z,94605.55
2018-07-03T12:43:19.274Z,94598.75
2018-07-03T12:45:48.007Z,94593.34
2018-07-03T12:48:17.036Z,94593.94
2018-07-03T12:50:45.816Z,94602.36
2018-07-03T12:53:14.524Z,94596.61
2018-07-03T12:55:43.256Z,94596.64
2018-07-03T12:58:12.000Z,94591.16
2018-07-03T13:00:40.731Z,94596.08
2018-07-03T13:03:09.443Z,94590.95
2018-07-03T13:05:38.143Z,94589.31
2018-07-03T13:08:06.935Z,94594.64
2018-07-03T13:10:35.798Z,94596.44
2018-07-03T13:13:04.616Z,94601.23
2018-07-03T13:15:33.342Z,94600.09
2018-07-03T13:18:07.686Z,94603.75
2018-07-03T13:20:36.427Z,94601.03
2018-07-03T13:23:05.213Z,94596.54
2018-07-03T13:25:34.407Z,94606.33
2018-07-03T13:28:03.084Z,94599.20
2018-07-03T13:30:31.803Z,94603.14
2018-07-03T13:33:00.534Z,94598.01
2018-07-03T13:35:29.361Z,94599.70
2018-07-03T13:37:58.014Z,94604.50
2018-07-03T13:40:26.844Z,94601.42
2018-07-03T13:42:55.792Z,94600.12
2018-07-03T13:45:25.392Z,94599.64
2018-07-03T13:47:54.110Z,94602.31
2018-07-03T13:50:22.803Z,94604.62
2018-07-03T13:52:51.478Z,94595.33
2018-07-03T13:55:20.189Z,94596.63
2018-07-03T13:57:48.841Z,94591.17
2018-07-03T14:00:17.626Z,94591.00
2018-07-03T14:02:47.772Z,94593.58
2018-07-03T14:05:16.616Z,94596.45
2018-07-03T14:07:45.323Z,94597.61
2018-07-03T14:10:14.210Z,94600.23
2018-07-03T14:12:42.926Z,94601.47
2018-07-03T14:15:11.596Z,94596.98
2018-07-03T14:17:40.393Z,94600.94
2018-07-03T14:20:09.144Z,94599.80
2018-07-03T14:22:37.815Z,94591.63
2018-07-03T14:25:06.555Z,94591.81
2018-07-03T14:27:35.848Z,94586.52
2018-07-03T14:30:06.078Z,94592.16
2018-07-03T14:32:34.777Z,94584.59
2018-07-03T14:35:03.524Z,94590.78
2018-07-03T14:37:32.292Z,94591.24
2018-07-03T14:40:01.043Z,94590.55
2018-07-03T14:42:29.750Z,94585.70
2018-07-03T14:44:58.466Z,94588.07
2018-07-03T14:47:27.144Z,94583.31
2018-07-03T14:49:55.823Z,94584.95
2018-07-03T14:52:24.648Z,94583.14
2018-07-03T14:54:53.405Z,94578.14
2018-07-03T14:57:22.059Z,94581.92
2018-07-03T14:59:50.748Z,94584.88
2018-07-03T15:02:19.481Z,94587.41
2018-07-03T15:04:48.171Z,94585.47
2018-07-03T15:07:16.911Z,94582.69
2018-07-03T15:09:45.641Z,94573.64
2018-07-03T15:12:14.314Z,94578.62
2018-07-03T15:14:43.042Z,94580.55
2018-07-03T15:17:11.748Z,94580.98
2018-07-03T15:19:45.612Z,94581.22
2018-07-03T15:22:14.878Z,94587.88
2018-07-03T15:24:43.627Z,94588.87
2018-07-03T15:27:12.334Z,94587.22
2018-07-03T15:29:41.050Z,94591.33
2018-07-03T15:32:09.718Z,94594.52
2018-07-03T15:34:38.375Z,94595.61
2018-07-03T15:37:07.124Z,94593.34
2018-07-03T15:39:35.840Z,94586.57
2018-07-03T15:42:04.565Z,94590.27
2018-07-03T15:44:44.437Z,94599.25
2018-07-03T15:47:13.080Z,94598.50
2018-07-03T15:49:41.727Z,94603.55
2018-07-03T15:52:10.491Z,94608.02
2018-07-03T15:54:39.133Z,94605.05
2018-07-03T15:57:07.808Z,94609.72
2018-07-03T15:59:36.533Z,94609.16
2018-07-03T16:02:05.267Z,94609.11
2018-07-03T16:05:00.171Z,94614.09
2018-07-03T16:07:44.306Z,94607.08
2018-07-03T16:10:13.072Z,94617.04
2018-07-03T16:12:41.755Z,94625.18
2018-07-03T16:15:10.419Z,94626.05
2018-07-03T16:17:39.191Z,94626.50
2018-07-03T16:20:13.041Z,94628.97
2018-07-03T16:22:41.758Z,94623.57
2018-07-03T16:25:10.510Z,94621.03
2018-07-03T16:27:39.226Z,94617.63
2018-07-03T16:30:08.932Z,94617.05
2018-07-03T16:32:38.000Z,94618.29
2018-07-03T16:35:06.976Z,94626.95
2018-07-03T16:37:35.948Z,94622.20
2018-07-03T16:40:04.849Z,94627.41
2018-07-03T16:42:33.600Z,94627.22
2018-07-03T16:45:02.307Z,94625.44
2018-07-03T16:47:31.117Z,94626.02
2018-07-03T16:49:59.810Z,94633.63
2018-07-03T16:52:28.523Z,94631.86
2018-07-03T16:54:57.177Z,94626.23
2018-07-03T16:57:25.943Z,94631.24
2018-07-03T16:59:55.134Z,94636.25
2018-07-03T17:02:23.782Z,94648.75
2018-07-03T17:04:52.477Z,94646.20
2018-07-03T17:07:21.162Z,94661.47
2018-07-03T17:09:49.790Z,94662.73
2018-07-03T17:12:18.495Z,94660.53
2018-07-03T17:14:47.117Z,94668.00
2018-07-03T17:17:15.794Z,94666.98
2018-07-03T17:19:44.433Z,94666.15
2018-07-03T17:22:13.141Z,94670.79
2018-07-03T17:24:42.199Z,94673.66
2018-07-03T17:27:10.926Z,94677.98
2018-07-03T17:29:39.590Z,94686.21
2018-07-03T17:32:08.338Z,94695.90
2018-07-03T17:34:37.008Z,94695.73
2018-07-03T17:37:05.742Z,94703.53
2018-07-03T17:39:45.570Z,94698.20
2018-07-03T17:42:25.290Z,94699.16
2018-07-03T17:46:03.352Z,94703.20
2018-07-03T17:48:32.113Z,94691.84
2018-07-03T17:51:00.817Z,94692.62
2018-07-03T17:53:29.639Z,94706.50
2018-07-03T17:55:58.939Z,94700.36
2018-07-03T17:58:27.696Z,94701.97
2018-07-03T18:00:56.581Z,94704.88
2018-07-03T18:03:25.294Z,94696.61
2018-07-03T18:05:54.061Z,94700.12
2018-07-03T18:08:22.761Z,94694.09
2018-07-03T18:10:51.501Z,94695.66
2018-07-03T18:13:20.341Z,94689.02
2018-07-03T18:15:49.203Z,94687.19
2018-07-03T18:18:17.904Z,94687.44
2018-07-03T18:20:46.591Z,94694.41
2018-07-03T18:23:15.329Z,94697.11
2018-07-03T18:25:44.039Z,94698.73
2018-07-03T18:28:12.797Z,94697.94
2018-07-03T18:30:41.530Z,94689.92
2018-07-03T18:33:11.194Z,94697.11
2018-07-03T18:35:39.982Z,94699.53
2018-07-03T18:38:09.716Z,94704.03
2018-07-03T18:40:38.411Z,94706.42
2018-07-03T18:43:07.127Z,94716.80
2018-07-03T18:45:35.888Z,94719.22
2018-07-03T18:48:05.294Z,94721.33
2018-07-03T18:50:34.058Z,94711.73
2018-07-03T18:53:02.759Z,94713.84
2018-07-03T18:55:31.728Z,94721.53
2018-07-03T18:58:00.604Z,94724.20
2018-07-03T19:00:29.439Z,94726.03
2018-07-03T19:02:59.984Z,94726.55
2018-07-03T19:05:28.904Z,94725.98
2018-07-03T19:07:57.683Z,94727.55
2018-07-03T19:10:26.415Z,94730.66
2018-07-03T19:12:55.153Z,94734.91
2018-07-03T19:15:23.937Z,94739.41
2018-07-03T19:17:52.723Z,94741.55
2018-07-03T19:20:21.540Z,94741.55
2018-07-03T19:22:50.284Z,94743.92
2018-07-03T19:25:19.048Z,94749.78
2018-07-03T19:27:47.885Z,94761.48
2018-07-03T19:30:17.944Z,94762.20
2018-07-03T19:32:46.727Z,94756.02
2018-07-03T19:35:15.557Z,94762.74
2018-07-03T19:37:44.227Z,94766.07
2018-07-03T19:40:13.264Z,94767.07
2018-07-03T19:43:45.161Z,94771.34
2018-07-03T19:46:13.969Z,94765.71
2018-07-03T19:48:42.791Z,94769.45
2018-07-03T19:51:11.574Z,94763.30
2018-07-03T19:53:40.443Z,94771.32
2018-07-03T19:56:09.239Z,94768.11
2018-07-03T19:58:38.020Z,94764.66
2018-07-03T20:01:06.818Z,94764.61
2018-07-03T20:03:35.487Z,94760.03
2018-07-03T20:06:04.335Z,94763.28
2018-07-03T20:08:33.288Z,94768.20
2018-07-03T20:11:03.077Z,94766.67
2018-07-03T20:13:31.909Z,94766.12
2018-07-03T20:16:00.654Z,94769.09
2018-07-03T20:18:29.292Z,94768.35
2018-07-03T20:20:58.059Z,94761.71
2018-07-03T20:23:27.432Z,94764.78
2018-07-03T20:25:56.176Z,94773.28
2018-07-03T20:28:24.932Z,94766.13
2018-07-03T20:30:53.637Z,94769.30
2018-07-03T20:33:22.401Z,94767.63
2018-07-03T20:35:51.065Z,94763.02
2018-07-03T20:38:19.779Z,94754.42
2018-07-03T20:41:10.262Z,94757.30
2018-07-03T20:43:40.171Z,94751.95
2018-07-03T20:46:09.691Z,94752.94
2018-07-03T20:48:38.437Z,94752.72
2018-07-03T20:51:07.195Z,94754.81
2018-07-03T20:53:36.027Z,94757.45
2018-07-03T20:56:04.900Z,94757.47
2018-07-03T20:58:33.573Z,94758.45
2018-07-03T21:01:02.319Z,94764.82
2018-07-03T21:03:31.011Z,94762.14
2018-07-03T21:05:59.759Z,94764.42
2018-07-03T21:08:28.422Z,94766.69
2018-07-03T21:10:57.166Z,94764.28
2018-07-03T21:13:26.044Z,94764.23
2018-07-03T21:15:54.948Z,94754.70
2018-07-03T21:18:23.657Z,94755.20
2018-07-03T21:20:52.422Z,94764.23
2018-07-03T21:23:21.166Z,94763.47
2018-07-03T21:25:49.822Z,94760.77
2018-07-03T21:28:18.530Z,94764.35
2018-07-03T21:30:47.276Z,94763.36
2018-07-03T21:33:16.011Z,94772.09
2018-07-03T21:35:45.187Z,94774.72
2018-07-03T21:38:13.874Z,94777.59
2018-07-03T21:40:42.592Z,94777.02
2018-07-03T21:43:11.347Z,94775.98
2018-07-03T21:45:40.011Z,94775.98
2018-07-03T21:48:08.727Z,94772.26
2018-07-03T21:50:37.496Z,94768.81
2018-07-03T21:53:06.329Z,94769.07
2018-07-03T21:55:35.052Z,94764.81
2018-07-03T21:58:03.947Z,94761.05
2018-07-03T22:00:35.569Z,94757.84
2018-07-03T22:03:05.639Z,94759.10
2018-07-03T22:05:34.381Z,94760.36
2018-07-03T22:08:03.307Z,94760.30
2018-07-03T22:10:32.309Z,94758.15
2018-07-03T22:13:01.069Z,94751.04
2018-07-03T22:15:29.859Z,94752.51
2018-07-03T22:17:58.584Z,94749.69
2018-07-03T22:20:27.241Z,94747.86
2018-07-03T22:22:55.990Z,94748.72
2018-07-03T22:25:24.707Z,94750.43
2018-07-03T22:27:53.462Z,94751.88
2018-07-03T22:30:22.457Z,94746.80
2018-07-03T22:32:51.103Z,94746.30
2018-07-03T22:35:19.858Z,94747.95
2018-07-03T23:02:41.504Z,94744.04
2018-07-03T23:05:10.211Z,94748.17
2018-07-03T23:07:39.625Z,94747.30
2018-07-03T23:10:08.279Z,94740.35
2018-07-03T23:12:37.008Z,94742.80
2018-07-03T23:15:05.846Z,94737.70
2018-07-03T23:17:34.539Z,94740.69
2018-07-03T23:20:03.332Z,94744.98
2018-07-03T23:22:32.107Z,94753.12
2018-07-03T23:25:00.786Z,94751.09
2018-07-03T23:27:29.774Z,94751.80
2018-07-03T23:32:26.161Z,94756.56
2018-07-03T23:34:54.884Z,94761.42
2018-07-03T23:37:23.601Z,94763.77
2018-07-03T23:39:52.304Z,94762.70
2018-07-03T23:42:21.027Z,94761.33
2018-07-03T23:44:49.747Z,94761.53
2018-07-03T23:47:29.602Z,94754.08
2018-07-03T23:50:09.361Z,94763.55
2018-07-03T23:52:49.208Z,94766.34
2018-07-03T23:55:29.131Z,94771.67
2018-07-03T23:58:08.898Z,94774.84
